Noaa Gloria Michelle — KJLW — position and weather

sailwx.info

Track history (hours):
 
Tides and Currents Weather Stations Pressure Air Temp Water Temp Dewpoint Dewpoint Depression Visibility Wind Speed Wind Dir Waves Ship Positions

Noaa Gloria Michelle

Last reported at 2016-Aug-04 22:08 UTC. Time now 2016-Aug-25 06:18 UTC.
Position N 42°07' W 070°35'.
Warning: this ship's position is 20 days out of date.

; draft 3 m.

Type: Fishing. MMSI: 338066383.

Date/timePositionNaut miles runAvg speedWind from/ knotsBaromVisibWave heightAir tempDewpointWater temp
2016-Aug-04 22:08N 42°07' W 070°35'3 3.9
2016-Aug-04 21:18N 42°10' W 070°35'3 3.7
2016-Aug-04 20:34N 42°13' W 070°36'4 3.8
2016-Aug-04 19:34N 42°16' W 070°39'4 3.2
2016-Aug-04 18:28N 42°19' W 070°37'1 0.9
2016-Aug-04 17:33N 42°20' W 070°36'5 4.7
2016-Aug-04 16:33N 42°23' W 070°32'1 0.5
2016-Aug-04 15:34N 42°23' W 070°32'7 7.4
2016-Aug-04 14:34N 42°29' W 070°27'2 2.3
2016-Aug-04 13:33N 42°32' W 070°27'6 6.1
2016-Aug-04 12:34N 42°37' W 070°22'8 8.3
2016-Aug-04 11:33N 42°44' W 070°18'1 1.3
2016-Aug-04 10:33N 42°46' W 070°17'4 3.1
2016-Aug-04 09:22N 42°47' W 070°12'4 3.5
2016-Aug-04 08:11N 42°50' W 070°09'0 0.3
2016-Aug-04 07:24N 42°50' W 070°09'2 0.4
2016-Aug-04 02:29N 42°49' W 070°11'1 0.8
2016-Aug-04 01:34N 42°48' W 070°11'4 3.5
2016-Aug-04 00:33N 42°46' W 070°14'3 2.8
2016-Aug-03 23:33N 42°46' W 070°18'5 5.1
2016-Aug-03 22:33N 42°49' W 070°12'4 4.4
2016-Aug-03 21:33N 42°48' W 070°06'7 6.7
2016-Aug-03 20:34N 42°51' W 069°58'10 2.4
2016-Aug-03 16:33N 42°60' W 069°52'10 9.0
2016-Aug-03 15:28N 43°00' W 069°39'  
Track history (hours):
 
Tides and Currents Weather Stations Pressure Air Temp Water Temp Dewpoint Dewpoint Depression Visibility Wind Speed Wind Dir Waves Ship Positions

Noaa Gloria Michelle

Last reported at 2016-Aug-04 22:08 UTC. Time now 2016-Aug-25 06:18 UTC.
Position N 42°07' W 070°35'.
Warning: this ship's position is 20 days out of date.

; draft 3 m.

Type: Fishing. MMSI: 338066383.

Date/timePositionNaut miles runAvg speedWind from/ knotsBaromVisibWave heightAir tempDewpointWater temp
2016-Aug-04 22:08N 42°07' W 070°35'3 3.9
2016-Aug-04 21:18N 42°10' W 070°35'3 3.7
2016-Aug-04 20:34N 42°13' W 070°36'4 3.8
2016-Aug-04 19:34N 42°16' W 070°39'4 3.2
2016-Aug-04 18:28N 42°19' W 070°37'1 0.9
2016-Aug-04 17:33N 42°20' W 070°36'5 4.7
2016-Aug-04 16:33N 42°23' W 070°32'1 0.5
2016-Aug-04 15:34N 42°23' W 070°32'7 7.4
2016-Aug-04 14:34N 42°29' W 070°27'2 2.3
2016-Aug-04 13:33N 42°32' W 070°27'6 6.1
2016-Aug-04 12:34N 42°37' W 070°22'8 8.3
2016-Aug-04 11:33N 42°44' W 070°18'1 1.3
2016-Aug-04 10:33N 42°46' W 070°17'4 3.1
2016-Aug-04 09:22N 42°47' W 070°12'4 3.5
2016-Aug-04 08:11N 42°50' W 070°09'0 0.3
2016-Aug-04 07:24N 42°50' W 070°09'2 0.4
2016-Aug-04 02:29N 42°49' W 070°11'1 0.8
2016-Aug-04 01:34N 42°48' W 070°11'4 3.5
2016-Aug-04 00:33N 42°46' W 070°14'3 2.8
2016-Aug-03 23:33N 42°46' W 070°18'5 5.1
2016-Aug-03 22:33N 42°49' W 070°12'4 4.4
2016-Aug-03 21:33N 42°48' W 070°06'7 6.7
2016-Aug-03 20:34N 42°51' W 069°58'10 2.4
2016-Aug-03 16:33N 42°60' W 069°52'10 9.0
2016-Aug-03 15:28N 43°00' W 069°39'  

Dump ship's entire track history